Time;durP1;ratioP1;P1;durP2;ratioP2;P2;SDS_P1;SDS_P2;PMS_P1;PMS_P2;Temp;Humidity;BMP_temperature;BMP_pressure;BME280_temperature;BME280_humidity;BME280_pressure;Samples;Min_cycle;Max_cycle;Signal;HPM_P1;HPM_P2
2023/08/25 00:01:55;;;;;;;0.00;0.00;;;18.20;100.00;;;;;;5023115;28;20544;-78
2023/08/25 00:04:22;;;;;;;0.00;0.00;;;18.20;100.00;;;;;;5026618;28;20057;-77
2023/08/25 00:06:49;;;;;;;0.00;0.00;;;18.20;100.00;;;;;;5028816;28;20049;-78
2023/08/25 00:09:16;;;;;;;0.00;0.00;;;18.20;100.00;;;;;;5023258;28;20054;-77
2023/08/25 00:11:43;;;;;;;0.00;0.00;;;18.20;100.00;;;;;;5015548;28;20050;-78
2023/08/25 00:14:10;;;;;;;0.00;0.00;;;18.20;100.00;;;;;;5006739;28;20107;-78
2023/08/25 00:16:36;;;;;;;0.00;0.00;;;18.20;100.00;;;;;;5011621;28;20104;-77
2023/08/25 00:19:04;;;;;;;0.00;0.00;;;18.20;100.00;;;;;;5028792;28;20137;-78
2023/08/25 00:21:30;;;;;;;0.00;0.00;;;18.10;100.00;;;;;;5025636;28;20179;-77
2023/08/25 00:23:58;;;;;;;0.00;0.00;;;18.10;100.00;;;;;;5021574;28;20140;-78
2023/08/25 00:26:24;;;;;;;0.00;0.00;;;18.10;100.00;;;;;;5025400;28;20053;-77
2023/08/25 00:28:51;;;;;;;0.00;0.00;;;18.10;100.00;;;;;;5018473;28;20053;-78
2023/08/25 00:31:18;;;;;;;0.00;0.00;;;18.10;100.00;;;;;;5020494;28;20133;-78
2023/08/25 00:33:52;;;;;;;0.00;0.00;;;18.10;100.00;;;;;;5006630;28;20050;-78
2023/08/25 00:36:19;;;;;;;0.00;0.00;;;18.10;100.00;;;;;;5015942;28;20139;-78
2023/08/25 00:38:46;;;;;;;0.00;0.00;;;18.10;100.00;;;;;;5006029;28;20076;-78
2023/08/25 00:41:13;;;;;;;0.00;0.00;;;18.00;100.00;;;;;;5022737;28;20063;-77
2023/08/25 00:43:40;;;;;;;0.00;0.00;;;18.00;100.00;;;;;;5027178;28;20135;-77
2023/08/25 00:46:08;;;;;;;0.00;0.00;;;18.00;100.00;;;;;;5007546;28;20056;-77
2023/08/25 00:48:35;;;;;;;0.00;0.00;;;18.00;100.00;;;;;;5005889;28;20053;-77
2023/08/25 00:51:04;;;;;;;0.00;0.00;;;18.00;100.00;;;;;;5012508;28;20053;-77
2023/08/25 00:53:35;;;;;;;0.00;0.00;;;18.00;100.00;;;;;;5027021;28;20111;-77
2023/08/25 00:56:03;;;;;;;0.00;0.00;;;18.00;100.00;;;;;;5012313;28;20053;-77
2023/08/25 00:58:30;;;;;;;0.00;0.00;;;18.00;100.00;;;;;;5008028;28;20061;-78
2023/08/25 01:01:01;;;;;;;0.00;0.00;;;18.00;100.00;;;;;;5003960;28;20061;-78
2023/08/25 01:03:28;;;;;;;0.00;0.00;;;17.90;100.00;;;;;;5012942;28;20080;-78
2023/08/25 01:05:56;;;;;;;0.00;0.00;;;17.90;100.00;;;;;;5029456;28;20061;-77
2023/08/25 01:08:24;;;;;;;0.00;0.00;;;17.90;100.00;;;;;;5027005;28;20058;-78
2023/08/25 01:10:55;;;;;;;0.00;0.00;;;17.90;100.00;;;;;;5010308;28;20107;-77
2023/08/25 01:13:54;;;;;;;0.00;0.00;;;17.90;100.00;;;;;;5031701;28;20060;-78
2023/08/25 01:16:39;;;;;;;0.00;0.00;;;17.90;100.00;;;;;;5024209;28;20049;-77
2023/08/25 01:19:20;;;;;;;0.00;0.00;;;17.90;100.00;;;;;;5006919;28;20053;-77
2023/08/25 01:21:51;;;;;;;0.00;0.00;;;17.80;100.00;;;;;;5029811;28;20090;-78
2023/08/25 01:24:22;;;;;;;0.00;0.00;;;17.80;100.00;;;;;;5033681;28;20120;-78
2023/08/25 01:26:50;;;;;;;0.00;0.00;;;17.80;100.00;;;;;;5034986;28;20076;-78
2023/08/25 01:29:17;;;;;;;0.00;0.00;;;17.80;100.00;;;;;;5009129;28;20056;-77
2023/08/25 01:31:43;;;;;;;0.00;0.00;;;17.70;100.00;;;;;;5014399;28;20839;-77
2023/08/25 01:34:15;;;;;;;0.00;0.00;;;17.70;100.00;;;;;;5022722;28;20049;-78
2023/08/25 01:37:00;;;;;;;0.00;0.00;;;17.70;100.00;;;;;;5027214;28;20072;-77
2023/08/25 01:39:44;;;;;;;0.00;0.00;;;17.70;100.00;;;;;;5010281;28;20049;-77
2023/08/25 01:42:14;;;;;;;0.00;0.00;;;17.70;100.00;;;;;;5029926;28;20136;-78
2023/08/25 01:44:42;;;;;;;0.00;0.00;;;17.60;100.00;;;;;;5029740;28;20108;-78
2023/08/25 01:47:11;;;;;;;0.00;0.00;;;17.60;100.00;;;;;;5028483;28;20321;-77
2023/08/25 01:49:39;;;;;;;0.00;0.00;;;17.60;100.00;;;;;;5033072;28;20489;-78
2023/08/25 01:52:07;;;;;;;0.00;0.00;;;17.50;100.00;;;;;;5014200;28;20046;-78
2023/08/25 01:54:35;;;;;;;0.00;0.00;;;17.50;100.00;;;;;;5026606;28;20466;-78
2023/08/25 01:57:02;;;;;;;0.00;0.00;;;17.50;100.00;;;;;;5021934;28;20049;-78
2023/08/25 01:59:29;;;;;;;0.00;0.00;;;17.50;100.00;;;;;;5025408;28;20060;-77
2023/08/25 02:01:56;;;;;;;0.00;0.00;;;17.50;100.00;;;;;;5027276;28;20049;-78
2023/08/25 02:04:23;;;;;;;0.00;0.00;;;17.50;100.00;;;;;;5037244;28;20142;-78
2023/08/25 02:06:50;;;;;;;0.00;0.00;;;17.50;100.00;;;;;;5028501;28;20062;-78
2023/08/25 02:09:18;;;;;;;0.00;0.00;;;17.40;100.00;;;;;;5025307;28;20050;-78
2023/08/25 02:11:44;;;;;;;0.00;0.00;;;17.40;100.00;;;;;;5011023;28;20045;-78
2023/08/25 02:14:11;;;;;;;0.00;0.00;;;17.40;100.00;;;;;;5025683;28;20051;-78
2023/08/25 02:16:38;;;;;;;0.00;0.00;;;17.30;100.00;;;;;;5015331;28;20123;-78
2023/08/25 02:19:05;;;;;;;0.00;0.00;;;17.30;100.00;;;;;;5026645;28;20054;-78
2023/08/25 02:21:45;;;;;;;0.00;0.00;;;17.30;100.00;;;;;;5010081;28;20149;-78
2023/08/25 02:24:12;;;;;;;0.00;0.00;;;17.30;100.00;;;;;;5006170;28;20141;-78
2023/08/25 02:26:38;;;;;;;0.00;0.00;;;17.30;100.00;;;;;;5024851;28;20152;-78
2023/08/25 02:29:06;;;;;;;0.00;0.00;;;17.20;100.00;;;;;;5006590;28;20073;-79
2023/08/25 02:31:33;;;;;;;0.00;0.00;;;17.20;100.00;;;;;;5024574;28;20107;-78
2023/08/25 02:34:00;;;;;;;0.00;0.00;;;17.20;100.00;;;;;;5011241;28;20149;-78
2023/08/25 02:36:27;;;;;;;0.00;0.00;;;17.20;100.00;;;;;;5023251;28;20664;-78
2023/08/25 02:38:54;;;;;;;0.00;0.00;;;17.20;100.00;;;;;;5024186;28;20738;-78
2023/08/25 02:41:21;;;;;;;0.00;0.00;;;17.20;100.00;;;;;;5004999;28;20148;-77
2023/08/25 02:43:48;;;;;;;0.00;0.00;;;17.20;100.00;;;;;;5026066;28;20115;-78
2023/08/25 02:46:15;;;;;;;0.00;0.00;;;17.10;100.00;;;;;;5018953;28;20057;-78
2023/08/25 02:48:42;;;;;;;0.00;0.00;;;17.20;100.00;;;;;;5015527;28;20055;-78
2023/08/25 02:51:09;;;;;;;0.00;0.00;;;17.20;100.00;;;;;;5021215;28;20054;-78
2023/08/25 02:53:36;;;;;;;0.00;0.00;;;17.20;100.00;;;;;;5020524;28;20042;-77
2023/08/25 02:56:03;;;;;;;0.00;0.00;;;17.20;100.00;;;;;;5029747;28;20057;-78
2023/08/25 02:58:30;;;;;;;0.00;0.00;;;17.20;100.00;;;;;;5021900;28;20146;-78
2023/08/25 03:00:56;;;;;;;0.00;0.00;;;17.30;100.00;;;;;;5006662;28;20090;-71
2023/08/25 03:03:26;;;;;;;0.00;0.00;;;17.30;100.00;;;;;;5022775;28;20058;-71
2023/08/25 03:05:57;;;;;;;0.00;0.00;;;17.30;100.00;;;;;;5025174;28;20165;-71
2023/08/25 03:08:24;;;;;;;0.00;0.00;;;17.30;100.00;;;;;;5025061;28;20141;-71
2023/08/25 03:10:53;;;;;;;0.00;0.00;;;17.30;100.00;;;;;;5009331;28;20136;-71
2023/08/25 03:13:20;;;;;;;0.00;0.00;;;17.30;100.00;;;;;;5028025;28;20045;-71
2023/08/25 03:15:54;;;;;;;0.00;0.00;;;17.30;100.00;;;;;;5020687;28;20049;-71
2023/08/25 03:18:21;;;;;;;0.00;0.00;;;17.30;100.00;;;;;;5024829;28;20119;-71
2023/08/25 03:20:52;;;;;;;0.00;0.00;;;17.30;100.00;;;;;;5012687;28;20123;-70
2023/08/25 03:23:19;;;;;;;0.00;0.00;;;17.30;100.00;;;;;;5009211;28;20132;-71
2023/08/25 03:25:46;;;;;;;0.00;0.00;;;17.30;100.00;;;;;;5010090;28;20053;-71
2023/08/25 03:28:13;;;;;;;0.00;0.00;;;17.30;100.00;;;;;;5009687;28;20057;-70
2023/08/25 03:30:40;;;;;;;0.00;0.00;;;17.30;100.00;;;;;;5023897;28;20051;-70
2023/08/25 03:33:07;;;;;;;0.28;0.28;;;17.20;100.00;;;;;;5005974;28;20587;-71
2023/08/25 03:35:37;;;;;;;0.00;0.00;;;17.20;100.00;;;;;;5024641;28;20577;-71
2023/08/25 03:38:08;;;;;;;0.00;0.00;;;17.20;100.00;;;;;;5012575;28;20053;-71
2023/08/25 03:40:35;;;;;;;0.00;0.00;;;17.20;100.00;;;;;;5014661;28;20057;-71
2023/08/25 03:43:02;;;;;;;0.00;0.00;;;17.20;100.00;;;;;;5020183;28;20539;-71
2023/08/25 03:45:28;;;;;;;0.00;0.00;;;17.20;100.00;;;;;;5026161;28;20160;-78
2023/08/25 03:47:55;;;;;;;0.00;0.00;;;17.20;100.00;;;;;;5006404;28;20052;-79
2023/08/25 03:50:24;;;;;;;0.00;0.00;;;17.20;100.00;;;;;;5022303;28;20606;-79
2023/08/25 03:52:52;;;;;;;0.00;0.00;;;17.20;100.00;;;;;;5027915;28;20139;-78
2023/08/25 03:55:19;;;;;;;0.00;0.00;;;17.20;100.00;;;;;;5023812;28;20545;-78
2023/08/25 03:57:49;;;;;;;0.00;0.00;;;17.20;100.00;;;;;;5027897;28;20096;-77
2023/08/25 04:00:16;;;;;;;0.00;0.00;;;17.20;100.00;;;;;;5017259;28;20060;-77
2023/08/25 04:02:43;;;;;;;0.00;0.00;;;17.10;100.00;;;;;;5031454;28;20053;-77
2023/08/25 04:05:10;;;;;;;0.00;0.00;;;17.10;100.00;;;;;;5027551;28;20077;-71
2023/08/25 04:07:37;;;;;;;0.00;0.00;;;17.10;100.00;;;;;;5007967;28;20056;-71
2023/08/25 04:10:04;;;;;;;0.00;0.00;;;17.10;100.00;;;;;;5014616;28;20045;-71
2023/08/25 04:12:31;;;;;;;0.00;0.00;;;17.10;100.00;;;;;;5028444;28;20052;-71
2023/08/25 04:14:58;;;;;;;0.00;0.00;;;17.10;100.00;;;;;;5018964;28;20581;-71
2023/08/25 04:17:24;;;;;;;0.00;0.00;;;17.10;100.00;;;;;;5010554;28;20126;-71
2023/08/25 04:19:51;;;;;;;0.00;0.00;;;17.10;100.00;;;;;;5010631;28;20057;-71
2023/08/25 04:22:18;;;;;;;0.00;0.00;;;17.10;100.00;;;;;;5004120;28;20060;-71
2023/08/25 04:24:45;;;;;;;0.00;0.00;;;17.10;100.00;;;;;;4997533;28;20080;-71
2023/08/25 04:27:12;;;;;;;0.00;0.00;;;17.10;100.00;;;;;;5025241;28;20372;-71
2023/08/25 04:29:38;;;;;;;0.00;0.00;;;17.10;100.00;;;;;;5029973;28;20049;-71
2023/08/25 04:32:05;;;;;;;0.00;0.00;;;17.10;100.00;;;;;;5027101;28;20128;-71
2023/08/25 04:34:32;;;;;;;0.00;0.00;;;17.10;100.00;;;;;;5009117;28;20486;-71
2023/08/25 04:36:59;;;;;;;0.00;0.00;;;17.10;100.00;;;;;;5028667;28;20053;-71
2023/08/25 04:39:26;;;;;;;0.00;0.00;;;17.10;100.00;;;;;;5030024;28;20136;-78
2023/08/25 04:41:54;;;;;;;0.00;0.00;;;17.10;100.00;;;;;;5024236;28;20069;-78
2023/08/25 04:44:21;;;;;;;0.00;0.00;;;17.20;100.00;;;;;;5023095;28;20122;-77
2023/08/25 04:46:48;;;;;;;0.00;0.00;;;17.20;100.00;;;;;;5026044;28;20049;-78
2023/08/25 04:49:15;;;;;;;0.00;0.00;;;17.20;100.00;;;;;;5020717;28;20056;-77
2023/08/25 04:51:42;;;;;;;0.00;0.00;;;17.20;100.00;;;;;;5026607;28;20128;-78
2023/08/25 04:54:09;;;;;;;0.00;0.00;;;17.20;100.00;;;;;;5031213;28;20042;-79
2023/08/25 04:56:36;;;;;;;0.00;0.00;;;17.20;100.00;;;;;;5026064;28;20115;-77
2023/08/25 04:59:03;;;;;;;0.00;0.00;;;17.30;100.00;;;;;;5007375;28;20129;-78
2023/08/25 05:01:30;;;;;;;0.00;0.00;;;17.30;100.00;;;;;;5025899;28;20077;-79
2023/08/25 05:03:57;;;;;;;0.00;0.00;;;17.40;100.00;;;;;;5027444;28;20054;-78
2023/08/25 05:06:24;;;;;;;0.00;0.00;;;17.40;100.00;;;;;;5032209;28;20047;-79
2023/08/25 05:08:51;;;;;;;0.00;0.00;;;17.40;100.00;;;;;;5022014;28;20057;-80
2023/08/25 05:11:18;;;;;;;0.00;0.00;;;17.40;100.00;;;;;;5020829;28;20502;-80
2023/08/25 05:13:45;;;;;;;0.00;0.00;;;17.50;100.00;;;;;;5029361;28;20068;-80
2023/08/25 05:16:12;;;;;;;0.00;0.00;;;17.50;100.00;;;;;;5036283;28;20167;-79
2023/08/25 05:18:39;;;;;;;0.00;0.00;;;17.50;100.00;;;;;;5015884;28;20122;-81
2023/08/25 05:21:06;;;;;;;0.00;0.00;;;17.60;100.00;;;;;;5015214;28;20145;-79
2023/08/25 05:23:33;;;;;;;0.00;0.00;;;17.60;100.00;;;;;;5033126;28;20077;-77
2023/08/25 05:25:59;;;;;;;0.00;0.00;;;17.70;100.00;;;;;;5040112;28;20053;-80
2023/08/25 05:28:26;;;;;;;0.00;0.00;;;17.70;100.00;;;;;;5005228;28;20525;-77
2023/08/25 05:30:54;;;;;;;0.00;0.00;;;17.80;100.00;;;;;;5021440;28;20383;-78
2023/08/25 05:33:21;;;;;;;0.00;0.00;;;17.80;100.00;;;;;;5017791;28;20049;-76
2023/08/25 05:35:48;;;;;;;0.00;0.00;;;17.90;100.00;;;;;;5021870;28;20041;-75
2023/08/25 05:38:14;;;;;;;0.00;0.00;;;17.90;100.00;;;;;;5004630;28;20140;-72
2023/08/25 05:40:41;;;;;;;0.00;0.00;;;18.00;100.00;;;;;;5038072;28;20061;-71
2023/08/25 05:43:08;;;;;;;0.00;0.00;;;18.00;100.00;;;;;;5027608;28;20056;-70
2023/08/25 05:45:35;;;;;;;0.00;0.00;;;18.10;100.00;;;;;;5005022;28;20127;-73
2023/08/25 05:48:02;;;;;;;0.00;0.00;;;18.20;100.00;;;;;;5024743;28;20527;-73
2023/08/25 05:50:29;;;;;;;0.00;0.00;;;18.20;100.00;;;;;;5013182;28;20742;-73
2023/08/25 05:52:56;;;;;;;0.00;0.00;;;18.30;100.00;;;;;;5011695;28;20047;-73
2023/08/25 05:55:23;;;;;;;0.00;0.00;;;18.40;100.00;;;;;;5009330;28;20832;-73
2023/08/25 05:57:50;;;;;;;0.00;0.00;;;18.50;100.00;;;;;;5027472;28;20053;-73
2023/08/25 06:00:18;;;;;;;0.00;0.00;;;18.50;100.00;;;;;;5026941;28;20628;-73
2023/08/25 06:02:45;;;;;;;0.00;0.00;;;18.60;100.00;;;;;;5009457;28;20084;-73
2023/08/25 06:05:12;;;;;;;0.00;0.00;;;18.70;100.00;;;;;;5033203;28;20876;-73
2023/08/25 06:07:39;;;;;;;0.00;0.00;;;18.90;100.00;;;;;;5024238;28;20061;-73
2023/08/25 06:10:07;;;;;;;0.00;0.00;;;19.00;100.00;;;;;;5034152;28;20042;-73
2023/08/25 06:12:33;;;;;;;0.00;0.00;;;19.10;100.00;;;;;;5034991;28;20831;-72
2023/08/25 06:15:00;;;;;;;0.00;0.00;;;19.20;100.00;;;;;;5022584;28;20051;-73
2023/08/25 06:17:27;;;;;;;0.00;0.00;;;19.30;100.00;;;;;;5024842;28;20139;-73
2023/08/25 06:19:54;;;;;;;0.00;0.00;;;19.40;100.00;;;;;;5018034;28;20503;-80
2023/08/25 06:22:22;;;;;;;0.00;0.00;;;19.60;100.00;;;;;;5013451;28;20054;-80
2023/08/25 06:24:48;;;;;;;0.00;0.00;;;19.80;100.00;;;;;;5029089;28;20049;-80
2023/08/25 06:27:15;;;;;;;0.00;0.00;;;20.10;100.00;;;;;;5021277;28;20064;-73
2023/08/25 06:29:42;;;;;;;0.00;0.00;;;20.50;100.00;;;;;;4997959;28;20058;-73
2023/08/25 06:32:09;;;;;;;0.00;0.00;;;21.00;100.00;;;;;;5016350;28;20129;-73
2023/08/25 06:34:36;;;;;;;0.10;0.10;;;21.60;99.50;;;;;;5019890;28;20077;-74
2023/08/25 06:37:03;;;;;;;0.00;0.00;;;22.00;96.20;;;;;;5011588;28;20053;-73
2023/08/25 06:39:30;;;;;;;0.03;0.03;;;22.50;94.40;;;;;;5017423;28;20050;-73
2023/08/25 06:41:57;;;;;;;0.00;0.00;;;23.20;91.30;;;;;;5009096;28;20107;-74
2023/08/25 06:44:24;;;;;;;0.03;0.03;;;23.80;87.00;;;;;;5016969;28;20057;-73
2023/08/25 06:46:50;;;;;;;0.10;0.10;;;23.90;87.00;;;;;;5016191;28;20053;-73
2023/08/25 06:49:17;;;;;;;0.00;0.00;;;24.20;86.60;;;;;;5017187;28;20164;-73
2023/08/25 06:51:44;;;;;;;0.40;0.40;;;24.40;85.40;;;;;;5024806;28;20137;-73
2023/08/25 06:54:11;;;;;;;0.08;0.08;;;24.40;83.20;;;;;;5020255;28;20137;-74
2023/08/25 06:56:38;;;;;;;0.00;0.00;;;24.30;85.10;;;;;;5006849;28;20049;-74
2023/08/25 06:59:05;;;;;;;0.00;0.00;;;24.50;83.80;;;;;;5026867;28;20639;-73
2023/08/25 07:01:32;;;;;;;0.00;0.00;;;24.60;81.80;;;;;;4997933;28;20057;-73
2023/08/25 07:03:59;;;;;;;0.10;0.10;;;24.70;82.60;;;;;;5020867;28;20057;-74
2023/08/25 07:06:26;;;;;;;0.00;0.00;;;24.90;81.50;;;;;;5022297;28;20056;-74
2023/08/25 07:08:53;;;;;;;0.00;0.00;;;25.20;82.10;;;;;;5018061;28;20130;-73
2023/08/25 07:11:20;;;;;;;0.00;0.00;;;25.50;80.20;;;;;;5009820;28;20137;-73
2023/08/25 07:13:48;;;;;;;0.00;0.00;;;26.00;77.10;;;;;;4998951;28;20051;-74
2023/08/25 07:16:19;;;;;;;0.10;0.10;;;26.20;75.60;;;;;;5019432;28;20045;-74
2023/08/25 07:18:46;;;;;;;0.00;0.00;;;26.60;75.40;;;;;;5022817;28;20505;-74
2023/08/25 07:21:13;;;;;;;0.05;0.05;;;26.50;72.50;;;;;;5002980;28;20057;-73
2023/08/25 07:23:43;;;;;;;0.00;0.00;;;26.30;76.20;;;;;;5004801;28;20085;-74
2023/08/25 07:26:09;;;;;;;0.10;0.10;;;26.40;74.90;;;;;;5016939;28;20163;-73
2023/08/25 07:28:36;;;;;;;0.00;0.00;;;26.40;73.40;;;;;;5021275;28;20131;-73
2023/08/25 07:31:04;;;;;;;0.00;0.00;;;26.80;74.10;;;;;;5011683;28;20457;-73
2023/08/25 07:33:31;;;;;;;0.00;0.00;;;27.30;72.60;;;;;;5020546;28;20045;-73
2023/08/25 07:35:58;;;;;;;0.00;0.00;;;27.60;72.20;;;;;;5023783;28;20049;-74
2023/08/25 07:38:25;;;;;;;0.10;0.10;;;28.00;70.70;;;;;;5022619;28;20038;-73
2023/08/25 07:40:52;;;;;;;0.10;0.10;;;28.10;69.40;;;;;;5019395;28;20406;-74
2023/08/25 07:43:19;;;;;;;0.10;0.10;;;28.20;69.10;;;;;;5001396;28;20128;-74
2023/08/25 07:45:46;;;;;;;0.10;0.10;;;28.30;70.30;;;;;;5023265;28;20115;-73
2023/08/25 07:48:13;;;;;;;0.00;0.00;;;28.70;69.50;;;;;;5014011;28;20139;-74
2023/08/25 07:50:40;;;;;;;0.05;0.05;;;28.90;67.40;;;;;;4989963;28;20050;-74
2023/08/25 07:53:07;;;;;;;0.28;0.28;;;29.00;68.10;;;;;;4999471;28;20770;-74
2023/08/25 07:55:38;;;;;;;0.00;0.00;;;29.10;67.80;;;;;;4995589;28;20050;-73
2023/08/25 07:58:07;;;;;;;0.10;0.10;;;29.20;67.10;;;;;;5001590;28;20156;-73
2023/08/25 08:00:34;;;;;;;0.00;0.00;;;29.50;66.80;;;;;;5022182;28;20053;-74
2023/08/25 08:03:03;;;;;;;0.10;0.10;;;29.40;66.90;;;;;;5004447;28;20443;-73
2023/08/25 08:05:31;;;;;;;0.00;0.00;;;29.30;64.20;;;;;;5016296;28;20115;-74
2023/08/25 08:07:58;;;;;;;13.88;9.13;;;28.90;67.90;;;;;;5001332;28;20057;-73
2023/08/25 08:10:26;;;;;;;31.17;20.20;;;28.90;65.10;;;;;;5016106;28;20123;-73
2023/08/25 08:12:52;;;;;;;31.50;19.77;;;28.50;70.20;;;;;;5021983;28;21029;-73
2023/08/25 08:15:19;;;;;;;30.27;19.98;;;28.60;69.80;;;;;;5023992;28;20145;-73
2023/08/25 08:17:46;;;;;;;30.00;18.73;;;28.70;69.10;;;;;;5024028;28;20124;-78
2023/08/25 08:20:13;;;;;;;27.40;18.85;;;28.90;68.50;;;;;;5010970;28;20058;-79
2023/08/25 08:22:45;;;;;;;29.75;18.63;;;29.00;70.30;;;;;;5019614;28;20045;-79
2023/08/25 08:25:14;;;;;;;25.30;19.13;;;29.00;70.00;;;;;;5014681;28;20124;-79
2023/08/25 08:27:42;;;;;;;28.63;19.70;;;29.20;68.60;;;;;;5009145;28;20414;-74
2023/08/25 08:30:09;;;;;;;23.77;18.73;;;28.80;69.70;;;;;;5013812;28;20467;-74
2023/08/25 08:32:38;;;;;;;31.83;18.50;;;29.50;68.00;;;;;;5002777;28;20046;-73
2023/08/25 08:35:08;;;;;;;27.10;19.08;;;29.80;67.40;;;;;;5015715;28;20053;-73
2023/08/25 08:37:36;;;;;;;30.23;20.80;;;29.70;68.10;;;;;;5005819;28;20414;-73
2023/08/25 08:40:09;;;;;;;29.67;19.65;;;29.70;63.70;;;;;;5007845;28;20519;-73
2023/08/25 08:42:37;;;;;;;26.50;20.23;;;28.90;69.20;;;;;;5006303;28;20140;-74
2023/08/25 08:45:09;;;;;;;28.63;21.38;;;29.00;67.60;;;;;;5016905;28;20115;-74
2023/08/25 08:47:38;;;;;;;29.02;20.67;;;28.80;66.40;;;;;;5016925;28;20049;-74
2023/08/25 08:50:06;;;;;;;30.27;21.60;;;28.70;67.90;;;;;;5001063;28;20132;-74
2023/08/25 08:52:34;;;;;;;31.38;20.05;;;28.50;68.00;;;;;;4993657;28;20057;-74
2023/08/25 08:55:05;;;;;;;35.80;20.92;;;28.40;70.00;;;;;;5023974;28;20053;-74
2023/08/25 08:57:32;;;;;;;27.17;19.50;;;28.60;70.00;;;;;;5018943;28;20050;-74
2023/08/25 08:59:59;;;;;;;29.00;21.05;;;28.40;68.20;;;;;;5005815;28;20056;-74
2023/08/25 09:02:28;;;;;;;25.70;19.67;;;28.20;68.30;;;;;;5003901;28;20049;-74
2023/08/25 09:05:00;;;;;;;32.72;21.08;;;27.90;70.00;;;;;;5002537;28;20132;-74
2023/08/25 09:07:31;;;;;;;31.63;22.30;;;27.50;69.10;;;;;;4998296;28;20689;-74
2023/08/25 09:09:58;;;;;;;35.55;20.80;;;27.20;72.30;;;;;;5017292;28;20583;-74
2023/08/25 09:12:26;;;;;;;29.33;20.63;;;27.90;72.10;;;;;;5003184;28;20049;-74
2023/08/25 09:14:53;;;;;;;33.00;21.33;;;28.00;68.00;;;;;;5015846;28;20124;-74
2023/08/25 09:17:21;;;;;;;32.33;22.52;;;27.50;70.30;;;;;;5007098;28;20077;-79
2023/08/25 09:19:48;;;;;;;32.00;22.77;;;27.60;70.80;;;;;;5010880;28;20053;-79
2023/08/25 09:22:17;;;;;;;29.27;21.42;;;28.00;70.80;;;;;;5006131;28;20148;-79
2023/08/25 09:24:44;;;;;;;34.70;22.00;;;28.60;67.80;;;;;;5012960;28;20054;-79
2023/08/25 09:27:27;;;;;;;27.60;19.55;;;29.10;66.70;;;;;;5019047;28;20045;-79
2023/08/25 09:30:04;;;;;;;31.25;20.25;;;28.80;65.10;;;;;;5014965;28;20084;-79
2023/08/25 09:32:32;;;;;;;32.97;21.10;;;29.00;66.40;;;;;;5003357;28;20042;-80
2023/08/25 09:35:13;;;;;;;42.60;21.70;;;29.00;65.30;;;;;;5020378;28;20041;-78
2023/08/25 09:37:42;;;;;;;32.08;19.52;;;29.20;65.00;;;;;;5005684;28;20073;-73
2023/08/25 09:40:15;;;;;;;24.88;17.90;;;28.90;64.80;;;;;;5023782;28;20441;-73
2023/08/25 09:42:42;;;;;;;23.25;17.35;;;29.00;65.50;;;;;;5021246;28;20060;-72
2023/08/25 09:45:12;;;;;;;26.35;18.63;;;28.90;66.50;;;;;;5003653;28;20510;-72
2023/08/25 09:47:43;;;;;;;24.13;17.10;;;28.60;65.10;;;;;;5023776;28;20103;-78
2023/08/25 09:50:17;;;;;;;27.48;18.48;;;28.40;65.70;;;;;;5001577;28;20061;-79
2023/08/25 09:52:46;;;;;;;26.35;17.70;;;28.50;68.50;;;;;;5024358;28;20056;-79
2023/08/25 09:55:15;;;;;;;25.83;17.80;;;28.50;66.10;;;;;;5021768;28;20049;-78
2023/08/25 09:57:48;;;;;;;26.45;17.30;;;28.40;66.00;;;;;;5023242;28;20482;-78
2023/08/25 10:00:16;;;;;;;30.85;18.58;;;28.30;64.50;;;;;;5001005;28;20753;-78
2023/08/25 10:02:44;;;;;;;31.40;17.67;;;28.00;65.70;;;;;;5014784;28;20232;-78
2023/08/25 10:05:12;;;;;;;24.45;17.00;;;27.80;66.80;;;;;;5020660;28;20171;-79
2023/08/25 10:07:41;;;;;;;26.90;17.48;;;27.60;67.40;;;;;;5023059;28;20057;-78
2023/08/25 10:10:09;;;;;;;22.98;16.73;;;27.30;67.20;;;;;;5025083;28;20504;-78
2023/08/25 10:12:37;;;;;;;27.88;18.48;;;26.80;70.00;;;;;;5024189;28;20041;-77
2023/08/25 10:15:09;;;;;;;24.83;18.95;;;26.50;69.70;;;;;;5016580;28;20054;-79
2023/08/25 10:17:36;;;;;;;23.67;17.95;;;26.30;69.90;;;;;;4996302;28;20050;-78
2023/08/25 10:20:08;;;;;;;26.95;19.75;;;26.40;71.70;;;;;;5008359;28;20045;-79
2023/08/25 10:22:40;;;;;;;29.05;18.30;;;26.00;71.10;;;;;;5021267;28;20494;-79
2023/08/25 10:25:10;;;;;;;27.33;18.52;;;25.80;72.50;;;;;;5018829;28;20049;-79
2023/08/25 10:27:37;;;;;;;26.25;17.95;;;25.60;72.80;;;;;;5000681;28;20051;-79
2023/08/25 10:30:06;;;;;;;30.40;19.27;;;25.50;73.80;;;;;;5010156;28;20057;-79
2023/08/25 10:33:08;;;;;;;30.40;19.90;;;25.40;73.70;;;;;;5011260;28;20113;-79
2023/08/25 10:35:44;;;;;;;32.60;21.10;;;25.40;74.90;;;;;;4993296;28;20050;-78
2023/08/25 10:38:30;;;;;;;29.70;19.48;;;25.50;75.00;;;;;;5023088;28;20047;-74
2023/08/25 10:40:57;;;;;;;31.75;21.35;;;25.50;74.90;;;;;;5022287;28;20116;-74
2023/08/25 10:43:30;;;;;;;30.60;21.05;;;25.50;73.50;;;;;;5017461;28;20654;-73
2023/08/25 10:46:07;;;;;;;29.98;20.17;;;25.40;74.20;;;;;;5014566;28;20053;-74
2023/08/25 10:48:34;;;;;;;35.15;21.88;;;25.50;75.50;;;;;;5022819;28;20167;-74
2023/08/25 10:51:11;;;;;;;33.15;22.55;;;25.60;74.80;;;;;;4999094;28;20053;-79
2023/08/25 10:53:42;;;;;;;;;;;25.70;73.50;;;;;;4997507;28;20490;-79
2023/08/25 10:59:14;;;;;;;31.95;21.23;;;26.00;73.50;;;;;;4908973;29;20055;-79
2023/08/25 11:01:42;;;;;;;37.42;22.75;;;26.10;72.60;;;;;;4915303;29;20556;-79
2023/08/25 11:04:21;;;;;;;35.25;22.25;;;25.80;72.70;;;;;;4924083;29;20081;-79
2023/08/25 11:06:49;;;;;;;31.65;21.73;;;25.50;74.40;;;;;;4931386;29;20059;-81
2023/08/25 11:09:18;;;;;;;30.13;20.77;;;25.80;75.80;;;;;;4916611;29;20142;-80
2023/08/25 11:11:46;;;;;;;30.35;18.63;;;26.30;74.40;;;;;;4917480;29;20063;-78
2023/08/25 11:14:13;;;;;;;30.83;18.60;;;26.80;73.70;;;;;;4911803;29;20484;-79
2023/08/25 11:16:41;;;;;;;27.55;17.17;;;27.40;72.40;;;;;;4917036;29;20425;-80
2023/08/25 11:19:14;;;;;;;29.20;17.83;;;27.90;69.50;;;;;;4919804;29;20523;-80
2023/08/25 11:21:40;;;;;;;25.42;16.52;;;28.40;67.60;;;;;;4916854;29;20135;-80
2023/08/25 11:24:07;;;;;;;23.88;16.10;;;28.50;64.40;;;;;;4935440;29;20134;-81
2023/08/25 11:26:34;;;;;;;24.73;16.60;;;28.40;65.90;;;;;;4916285;29;20087;-81
2023/08/25 11:29:02;;;;;;;21.20;15.02;;;28.30;65.90;;;;;;4913269;29;20107;-80
2023/08/25 11:31:30;;;;;;;23.70;15.25;;;28.10;65.80;;;;;;4921466;29;20048;-78
2023/08/25 11:33:57;;;;;;;31.92;15.02;;;28.00;64.70;;;;;;4917843;29;20087;-72
2023/08/25 11:36:24;;;;;;;37.10;16.73;;;27.80;65.70;;;;;;4913400;29;20048;-73
2023/08/25 11:38:51;;;;;;;24.75;15.02;;;27.50;66.30;;;;;;4916505;29;20048;-79
2023/08/25 11:41:19;;;;;;;23.77;15.50;;;27.30;66.20;;;;;;4910752;29;20394;-73
2023/08/25 11:43:47;;;;;;;21.08;14.43;;;27.20;68.00;;;;;;4919032;29;20056;-78
2023/08/25 11:46:15;;;;;;;29.45;14.27;;;27.50;69.30;;;;;;4937897;29;20047;-77
2023/08/25 11:48:42;;;;;;;20.20;14.18;;;27.50;67.10;;;;;;4930133;29;20059;-79
2023/08/25 11:51:17;;;;;;;24.55;13.70;;;27.50;66.10;;;;;;4914491;29;20047;-80
2023/08/25 11:53:45;;;;;;;21.42;13.95;;;27.50;65.50;;;;;;4911364;29;20079;-80
2023/08/25 11:56:16;;;;;;;24.90;15.45;;;27.20;65.90;;;;;;4920848;29;20075;-80
2023/08/25 11:58:47;;;;;;;28.58;15.90;;;27.00;67.20;;;;;;4939714;28;20830;-77
2023/08/25 12:01:15;;;;;;;22.77;14.88;;;26.90;67.20;;;;;;4942578;28;20763;-76
2023/08/25 12:03:45;;;;;;;23.35;14.38;;;26.80;68.40;;;;;;4952621;28;20050;-77
2023/08/25 12:06:13;;;;;;;27.17;16.83;;;26.90;67.80;;;;;;4949482;28;20071;-76
2023/08/25 12:09:11;;;;;;;30.33;14.85;;;26.70;67.90;;;;;;4949010;28;20059;-76
2023/08/25 12:11:38;;;;;;;30.52;17.05;;;26.70;69.00;;;;;;4949942;28;20452;-71
2023/08/25 12:14:05;;;;;;;26.75;16.10;;;26.50;68.10;;;;;;4951549;28;20053;-71
2023/08/25 12:16:31;;;;;;;26.63;17.15;;;26.40;69.80;;;;;;4949751;28;20046;-71
2023/08/25 12:19:03;;;;;;;27.45;18.73;;;26.20;70.10;;;;;;4948789;28;20063;-71
2023/08/25 12:21:39;;;;;;;29.48;17.52;;;26.00;70.00;;;;;;4951354;28;20110;-71
2023/08/25 12:24:06;;;;;;;23.83;16.63;;;25.90;69.80;;;;;;4950303;28;20083;-71
2023/08/25 12:26:33;;;;;;;25.77;15.25;;;25.90;70.80;;;;;;4951085;28;20059;-73
2023/08/25 12:28:59;;;;;;;20.98;14.93;;;25.80;71.10;;;;;;4950408;28;20614;-73
2023/08/25 12:31:29;;;;;;;23.60;16.42;;;25.70;71.40;;;;;;4953269;28;20055;-72
2023/08/25 12:33:56;;;;;;;25.67;15.27;;;25.70;71.30;;;;;;4950496;28;20053;-73
2023/08/25 12:36:23;;;;;;;25.25;15.68;;;25.50;71.10;;;;;;4951845;28;20083;-72
2023/08/25 12:38:50;;;;;;;25.90;17.45;;;25.40;72.10;;;;;;4944269;28;20053;-73
2023/08/25 12:41:17;;;;;;;23.92;15.95;;;25.30;70.80;;;;;;4948523;28;20057;-74
2023/08/25 12:43:44;;;;;;;26.05;16.70;;;25.30;71.90;;;;;;4932522;28;20910;-74
2023/08/25 12:46:11;;;;;;;34.55;18.73;;;25.10;72.50;;;;;;4954838;28;20051;-74